createdAt,value
2018-04-30T00:01:25.448Z,100257.19
2018-04-30T00:03:51.172Z,100253.53
2018-04-30T00:06:16.900Z,100245.52
2018-04-30T00:08:42.633Z,100241.41
2018-04-30T00:11:08.357Z,100239.17
2018-04-30T00:13:34.079Z,100241.43
2018-04-30T00:15:59.816Z,100233.28
2018-04-30T00:18:25.536Z,100234.09
2018-04-30T00:20:51.277Z,100230.58
2018-04-30T00:23:17.009Z,100230.52
2018-04-30T00:25:42.753Z,100218.77
2018-04-30T00:28:08.467Z,100216.63
2018-04-30T00:30:34.210Z,100215.70
2018-04-30T00:32:59.940Z,100204.33
2018-04-30T00:35:25.701Z,100198.55
2018-04-30T00:37:51.428Z,100194.94
2018-04-30T00:40:17.177Z,100189.63
2018-04-30T00:42:42.908Z,100180.94
2018-04-30T00:45:08.644Z,100179.17
2018-04-30T00:47:34.376Z,100175.44
2018-04-30T00:50:00.100Z,100159.47
2018-04-30T00:52:25.834Z,100157.66
2018-04-30T00:54:58.674Z,100155.74
2018-04-30T00:57:24.607Z,100159.50
2018-04-30T00:59:50.272Z,100154.78
2018-04-30T01:02:16.013Z,100155.08
2018-04-30T01:04:41.743Z,100151.55
2018-04-30T01:07:07.477Z,100148.37
2018-04-30T01:09:33.244Z,100134.88
2018-04-30T01:11:58.964Z,100134.12
2018-04-30T01:14:24.721Z,100124.75
2018-04-30T01:16:50.434Z,100121.89
2018-04-30T01:19:16.152Z,100117.59
2018-04-30T01:21:41.893Z,100119.14
2018-04-30T01:24:07.618Z,100114.64
2018-04-30T01:26:33.353Z,100100.88
2018-04-30T01:28:59.068Z,100096.66
2018-04-30T01:31:24.813Z,100094.13
2018-04-30T01:33:50.541Z,100093.23
2018-04-30T01:36:16.269Z,100093.41
2018-04-30T01:38:41.983Z,100083.78
2018-04-30T01:41:07.733Z,100086.03
2018-04-30T01:43:33.451Z,100081.14
2018-04-30T01:45:59.187Z,100074.97
2018-04-30T01:48:24.916Z,100078.00
2018-04-30T01:50:50.657Z,100071.84
2018-04-30T01:53:16.377Z,100074.08
2018-04-30T01:55:42.148Z,100063.20
2018-04-30T01:58:07.868Z,100058.78
2018-04-30T02:00:33.601Z,100049.48
2018-04-30T02:02:59.349Z,100045.12
2018-04-30T02:05:25.073Z,100032.69
2018-04-30T02:07:50.807Z,100024.75
2018-04-30T02:10:16.520Z,100013.73
2018-04-30T02:12:42.260Z,100010.70
2018-04-30T02:15:07.996Z,99996.28
2018-04-30T02:17:33.736Z,99995.55
2018-04-30T02:19:59.472Z,99996.50
2018-04-30T02:22:25.227Z,99988.64
2018-04-30T02:24:50.953Z,99972.44
2018-04-30T02:27:16.675Z,99967.16
2018-04-30T02:29:42.408Z,99957.58
2018-04-30T02:32:08.133Z,99951.05
2018-04-30T02:34:33.847Z,99947.52
2018-04-30T02:36:59.577Z,99936.52
2018-04-30T02:39:25.317Z,99936.02
2018-04-30T02:41:51.045Z,99930.28
2018-04-30T02:44:16.768Z,99916.00
2018-04-30T02:46:42.503Z,99919.53
2018-04-30T02:49:08.228Z,99905.02
2018-04-30T02:51:33.972Z,99896.27
2018-04-30T02:53:59.696Z,99895.39
2018-04-30T02:56:25.529Z,99883.66
2018-04-30T02:58:51.268Z,99875.06
2018-04-30T03:01:16.993Z,99863.78
2018-04-30T03:03:42.713Z,99859.08
2018-04-30T03:06:08.440Z,99853.59
2018-04-30T03:08:34.170Z,99854.16
2018-04-30T03:10:59.904Z,99840.56
2018-04-30T03:13:25.636Z,99831.15
2018-04-30T03:15:51.356Z,99824.92
2018-04-30T03:18:17.087Z,99831.46
2018-04-30T03:20:42.808Z,99818.03
2018-04-30T03:23:08.537Z,99829.05
2018-04-30T03:25:34.269Z,99826.34
2018-04-30T03:27:59.992Z,99817.95
2018-04-30T03:30:25.727Z,99817.41
2018-04-30T03:32:51.448Z,99809.34
2018-04-30T03:35:17.172Z,99799.97
2018-04-30T03:37:42.897Z,99807.16
2018-04-30T03:40:08.619Z,99796.95
2018-04-30T03:42:34.356Z,99797.26
2018-04-30T03:45:00.071Z,99791.97
2018-04-30T03:47:25.804Z,99773.52
2018-04-30T03:49:51.527Z,99760.69
2018-04-30T03:52:17.276Z,99760.56
2018-04-30T03:54:43.004Z,99736.55
2018-04-30T03:57:08.731Z,99741.28
2018-04-30T03:59:34.447Z,99733.28
2018-04-30T04:02:12.586Z,99731.45
2018-04-30T04:04:50.524Z,99712.42
2018-04-30T04:07:16.269Z,99707.06
2018-04-30T04:09:41.991Z,99695.94
2018-04-30T04:12:07.728Z,99685.79
2018-04-30T04:14:33.461Z,99672.80
2018-04-30T04:16:59.187Z,99672.59
2018-04-30T04:19:24.920Z,99668.55
2018-04-30T04:21:50.652Z,99675.70
2018-04-30T04:24:16.397Z,99669.82
2018-04-30T04:26:42.112Z,99659.53
2018-04-30T04:29:07.850Z,99645.23
2018-04-30T04:31:33.580Z,99641.05
2018-04-30T04:33:59.312Z,99624.57
2018-04-30T04:36:25.037Z,99608.11
2018-04-30T04:38:50.768Z,99608.73
2018-04-30T04:41:16.506Z,99603.83
2018-04-30T04:43:42.229Z,99594.20
2018-04-30T04:46:07.955Z,99592.73
2018-04-30T04:48:33.683Z,99591.95
2018-04-30T04:50:59.404Z,99578.08
2018-04-30T04:53:25.141Z,99582.75
2018-04-30T04:55:50.876Z,99573.95
2018-04-30T04:58:16.613Z,99580.54
2018-04-30T05:00:42.340Z,99579.45
2018-04-30T05:03:08.057Z,99572.53
2018-04-30T05:05:33.780Z,99580.63
2018-04-30T05:07:59.502Z,99570.45
2018-04-30T05:10:25.219Z,99588.00
2018-04-30T05:12:50.943Z,99584.08
2018-04-30T05:15:16.664Z,99566.35
2018-04-30T05:17:42.405Z,99561.92
2018-04-30T05:20:08.136Z,99553.55
2018-04-30T05:22:33.852Z,99545.52
2018-04-30T05:24:59.584Z,99546.53
2018-04-30T05:27:25.297Z,99548.30
2018-04-30T05:29:51.020Z,99533.92
2018-04-30T05:32:16.736Z,99528.44
2018-04-30T05:34:42.467Z,99515.89
2018-04-30T05:37:08.196Z,99516.30
2018-04-30T05:39:33.928Z,99512.91
2018-04-30T05:41:59.654Z,99496.57
2018-04-30T05:44:25.438Z,99493.41
2018-04-30T05:46:51.126Z,99490.42
2018-04-30T05:49:16.865Z,99487.98
2018-04-30T05:51:42.588Z,99498.14
2018-04-30T05:54:08.348Z,99499.58
2018-04-30T05:56:34.075Z,99492.72
2018-04-30T05:58:59.816Z,99460.52
2018-04-30T06:01:25.637Z,99475.94
2018-04-30T06:03:51.369Z,99469.78
2018-04-30T06:06:17.096Z,99467.00
2018-04-30T06:08:42.890Z,99461.48
2018-04-30T06:11:08.568Z,99454.55
2018-04-30T06:13:34.313Z,99440.61
2018-04-30T06:16:00.043Z,99445.40
2018-04-30T06:18:26.567Z,99440.77
2018-04-30T06:20:52.284Z,99450.38
2018-04-30T06:23:18.013Z,99468.36
2018-04-30T06:25:43.767Z,99485.91
2018-04-30T06:28:09.500Z,99526.67
2018-04-30T06:30:35.216Z,99570.81
2018-04-30T06:33:00.941Z,99574.74
2018-04-30T06:35:26.676Z,99550.69
2018-04-30T06:37:52.409Z,99524.53
2018-04-30T06:40:18.144Z,99517.33
2018-04-30T06:42:43.869Z,99516.13
2018-04-30T06:45:09.620Z,99529.07
2018-04-30T06:47:35.347Z,99536.30
2018-04-30T06:50:01.086Z,99524.72
2018-04-30T06:52:26.808Z,99514.12
2018-04-30T06:54:52.539Z,99502.81
2018-04-30T06:57:18.269Z,99497.34
2018-04-30T06:59:44.019Z,99490.75
2018-04-30T07:02:09.749Z,99499.56
2018-04-30T07:04:35.477Z,99492.30
2018-04-30T07:07:01.195Z,99475.39
2018-04-30T07:09:27.004Z,99477.69
2018-04-30T07:11:52.661Z,99473.52
2018-04-30T07:14:18.396Z,99486.07
2018-04-30T07:16:44.124Z,99489.04
2018-04-30T07:19:09.905Z,99508.47
2018-04-30T07:21:35.628Z,99525.80
2018-04-30T07:24:01.370Z,111748.16
2018-04-30T07:26:27.084Z,111748.16
2018-04-30T07:28:52.817Z,111748.16
2018-04-30T07:31:18.549Z,111748.16
2018-04-30T07:33:44.279Z,111748.16
2018-04-30T07:36:10.000Z,111748.16
2018-04-30T07:38:35.742Z,111748.16
2018-04-30T07:41:01.477Z,111748.16
2018-04-30T07:43:27.204Z,111748.16
2018-04-30T07:45:52.937Z,111748.16
2018-04-30T07:48:18.657Z,111748.16
2018-04-30T07:50:44.403Z,111748.16
2018-04-30T07:53:10.120Z,111748.16
2018-04-30T07:55:35.855Z,111748.16
2018-04-30T07:58:01.592Z,111748.16
2018-04-30T08:00:27.315Z,111748.16
2018-04-30T08:02:53.040Z,111748.16
2018-04-30T08:05:18.780Z,111748.16
2018-04-30T08:07:44.563Z,111748.16
2018-04-30T08:10:10.304Z,111748.16
2018-04-30T08:12:36.021Z,111748.16
2018-04-30T08:15:01.759Z,111748.16
2018-04-30T08:17:27.484Z,111748.16
2018-04-30T08:19:53.216Z,111748.16
2018-04-30T08:22:18.943Z,111748.16
2018-04-30T08:24:44.695Z,111748.16
2018-04-30T08:27:10.403Z,111748.16
2018-04-30T08:29:36.159Z,111748.16
2018-04-30T08:32:01.897Z,111748.16
2018-04-30T08:34:27.632Z,111748.16
2018-04-30T08:36:53.348Z,111748.16
2018-04-30T08:39:19.080Z,111748.16
2018-04-30T08:41:44.861Z,111748.16
2018-04-30T08:44:10.614Z,111748.16
2018-04-30T08:46:36.344Z,111748.16
2018-04-30T08:49:02.073Z,111748.16
2018-04-30T08:51:27.812Z,111748.16
2018-04-30T08:53:53.528Z,111748.16
2018-04-30T08:56:19.273Z,111748.16
2018-04-30T08:58:45.000Z,111748.16
2018-04-30T09:01:10.731Z,111748.16
2018-04-30T09:03:36.444Z,111748.16
2018-04-30T09:06:02.178Z,111748.16
2018-04-30T09:08:27.897Z,111748.16
2018-04-30T09:10:53.638Z,111748.16
2018-04-30T09:13:19.355Z,111748.16
2018-04-30T09:15:45.084Z,111748.16
2018-04-30T09:18:10.792Z,111748.16
2018-04-30T09:20:36.518Z,111748.16
2018-04-30T09:23:02.241Z,111748.16
2018-04-30T09:25:27.981Z,111748.16
2018-04-30T09:27:53.705Z,111748.16
2018-04-30T09:30:19.449Z,111748.16
2018-04-30T09:32:45.163Z,111748.16
2018-04-30T09:35:10.891Z,111748.16
2018-04-30T09:37:36.603Z,111748.16
2018-04-30T09:40:02.340Z,111748.16
2018-04-30T09:42:28.065Z,111748.16
2018-04-30T09:44:53.800Z,111748.16
2018-04-30T09:47:19.520Z,111748.16
2018-04-30T09:49:45.235Z,111748.16
2018-04-30T09:52:10.960Z,111748.16
2018-04-30T09:54:36.676Z,111748.16
2018-04-30T09:57:02.427Z,111748.16
2018-04-30T09:59:28.144Z,111748.16
2018-04-30T10:01:53.920Z,111748.16
2018-04-30T10:04:19.612Z,111748.16
2018-04-30T10:06:45.348Z,111748.16
2018-04-30T10:09:11.068Z,111748.16
2018-04-30T10:11:36.797Z,111748.16
2018-04-30T10:14:02.525Z,111748.16
2018-04-30T10:16:28.256Z,111748.16
2018-04-30T10:18:53.988Z,111748.16
2018-04-30T10:21:19.729Z,111748.16
2018-04-30T10:23:45.526Z,111748.16
2018-04-30T10:26:11.208Z,111748.16
2018-04-30T10:28:36.988Z,111748.16
2018-04-30T10:31:02.681Z,111748.16
2018-04-30T10:33:28.403Z,111748.16
2018-04-30T10:35:54.132Z,111748.16
2018-04-30T10:38:19.868Z,111748.16
2018-04-30T10:40:45.608Z,111748.16
2018-04-30T10:43:11.327Z,111748.16
2018-04-30T10:45:37.058Z,111748.16
2018-04-30T10:48:02.799Z,111748.16
2018-04-30T10:50:28.532Z,111748.16
2018-04-30T10:52:54.263Z,111748.16
2018-04-30T10:55:19.988Z,111748.16
2018-04-30T10:57:45.741Z,111748.16
2018-04-30T11:00:11.462Z,111748.16
2018-04-30T11:02:37.199Z,111748.16
2018-04-30T11:05:02.922Z,111748.16
2018-04-30T11:07:28.651Z,111748.16
2018-04-30T11:09:54.384Z,111748.16
2018-04-30T11:12:20.186Z,111748.16
2018-04-30T11:14:45.865Z,111748.16
2018-04-30T11:17:11.609Z,111748.16
2018-04-30T11:19:37.332Z,111748.16
2018-04-30T11:22:03.077Z,111748.16
2018-04-30T11:24:28.810Z,111748.16
2018-04-30T11:26:54.557Z,111748.16
2018-04-30T11:29:20.277Z,111748.16
2018-04-30T11:31:46.008Z,111748.16
2018-04-30T11:34:11.810Z,111748.16
2018-04-30T11:36:37.469Z,111748.16
2018-04-30T11:39:03.217Z,111748.16
2018-04-30T11:41:28.945Z,111748.16
2018-04-30T11:43:54.676Z,111748.16
2018-04-30T11:46:20.419Z,111748.16
2018-04-30T11:48:46.153Z,111748.16
2018-04-30T11:51:11.888Z,111748.16
2018-04-30T11:53:37.636Z,111748.16
2018-04-30T11:56:03.403Z,111748.16
2018-04-30T11:58:29.141Z,111748.16
2018-04-30T12:00:54.878Z,111748.16
2018-04-30T12:03:20.611Z,111748.16
2018-04-30T12:05:46.352Z,111748.16
2018-04-30T12:08:12.088Z,111748.16
2018-04-30T12:10:37.813Z,111748.16
2018-04-30T12:13:03.552Z,111748.16
2018-04-30T12:15:29.285Z,111748.16
2018-04-30T12:17:55.031Z,111748.16
2018-04-30T12:20:20.760Z,111748.16
2018-04-30T12:22:46.500Z,111748.16
2018-04-30T12:25:12.220Z,111748.16
2018-04-30T12:27:37.968Z,111748.16
2018-04-30T12:30:03.708Z,111748.16
2018-04-30T12:32:29.443Z,111748.16
2018-04-30T12:34:55.182Z,111748.16
2018-04-30T12:37:20.928Z,111748.16
2018-04-30T12:39:46.655Z,111748.16
2018-04-30T12:42:12.399Z,111748.16
2018-04-30T12:44:38.142Z,111748.16
2018-04-30T12:47:03.872Z,111748.16
2018-04-30T12:49:29.705Z,111748.16
2018-04-30T12:51:55.360Z,111748.16
2018-04-30T12:54:21.089Z,111748.16
2018-04-30T12:56:46.840Z,111748.16
2018-04-30T12:59:12.557Z,111748.16
2018-04-30T13:01:38.280Z,111748.16
2018-04-30T13:05:54.937Z,99667.34
2018-04-30T13:08:20.671Z,99670.56
2018-04-30T13:10:46.389Z,99664.67
2018-04-30T13:13:12.117Z,99667.19
2018-04-30T13:15:37.840Z,99663.13
2018-04-30T13:18:03.580Z,99671.09
2018-04-30T13:20:29.292Z,99677.84
2018-04-30T13:22:55.032Z,99678.18
2018-04-30T13:25:20.753Z,99683.38
2018-04-30T13:27:46.509Z,99688.48
2018-04-30T13:30:12.229Z,99688.82
2018-04-30T13:32:37.964Z,99693.02
2018-04-30T13:35:03.672Z,99696.76
2018-04-30T13:37:29.387Z,99702.80
2018-04-30T13:39:55.160Z,99692.05
2018-04-30T13:42:20.876Z,99705.92
2018-04-30T13:44:46.599Z,99705.80
2018-04-30T13:47:12.334Z,99706.91
2018-04-30T13:49:38.062Z,99708.09
2018-04-30T13:52:03.808Z,99719.19
2018-04-30T13:54:29.531Z,99710.70
2018-04-30T13:56:55.264Z,99710.17
2018-04-30T13:59:20.991Z,99707.43
2018-04-30T14:01:46.717Z,99705.13
2018-04-30T14:04:12.447Z,99713.94
2018-04-30T14:06:38.159Z,99716.91
2018-04-30T14:09:04.801Z,99724.50
2018-04-30T14:11:30.524Z,99724.81
2018-04-30T14:13:56.242Z,99720.42
2018-04-30T14:16:21.956Z,99718.20
2018-04-30T14:18:47.689Z,99715.02
2018-04-30T14:21:13.408Z,99709.30
2018-04-30T14:23:39.133Z,99719.37
2018-04-30T14:26:04.854Z,99722.51
2018-04-30T14:28:30.590Z,99721.02
2018-04-30T14:30:56.299Z,99724.73
2018-04-30T14:33:22.036Z,99731.12
2018-04-30T14:35:47.744Z,99728.38
2018-04-30T14:38:13.468Z,99735.33
2018-04-30T14:40:39.186Z,99753.72
2018-04-30T14:43:04.935Z,99752.83
2018-04-30T14:45:30.681Z,99755.37
2018-04-30T14:47:56.406Z,99759.84
2018-04-30T14:50:22.132Z,99757.77
2018-04-30T14:52:47.852Z,99766.16
2018-04-30T14:55:13.577Z,99766.70
2018-04-30T14:57:39.304Z,99770.00
2018-04-30T15:00:05.026Z,99755.22
2018-04-30T15:02:30.836Z,99757.55
2018-04-30T15:04:56.491Z,99752.87
2018-04-30T15:07:22.220Z,99754.72
2018-04-30T15:09:47.947Z,99753.59
2018-04-30T15:12:13.661Z,99755.70
2018-04-30T15:14:39.387Z,99758.80
2018-04-30T15:17:05.123Z,99755.62
2018-04-30T15:19:30.887Z,99749.06
2018-04-30T15:21:56.568Z,99753.56
2018-04-30T15:24:22.300Z,99748.36
2018-04-30T15:26:48.026Z,99759.52
2018-04-30T15:29:13.763Z,99755.66
2018-04-30T15:31:39.483Z,99757.77
2018-04-30T15:34:05.224Z,99758.16
2018-04-30T15:36:30.935Z,99760.23
2018-04-30T15:38:56.656Z,99757.86
2018-04-30T15:41:22.376Z,99752.02
2018-04-30T15:43:48.129Z,99744.04
2018-04-30T15:46:13.861Z,99744.03
2018-04-30T15:48:39.686Z,99752.77
2018-04-30T15:51:05.343Z,99765.83
2018-04-30T15:53:31.078Z,99770.69
2018-04-30T15:55:56.813Z,99761.59
2018-04-30T15:58:22.560Z,99763.44
2018-04-30T16:00:48.280Z,99762.96
2018-04-30T16:03:14.021Z,99759.02
2018-04-30T16:05:39.747Z,99761.50
2018-04-30T16:08:05.501Z,99761.50
2018-04-30T16:10:31.227Z,99759.06
2018-04-30T16:12:56.950Z,99760.44
2018-04-30T16:15:22.677Z,99756.70
2018-04-30T16:17:48.399Z,99758.00
2018-04-30T16:20:14.182Z,99759.78
2018-04-30T16:22:39.847Z,99750.66
2018-04-30T16:25:05.580Z,99753.59
2018-04-30T16:27:31.305Z,99757.73
2018-04-30T16:29:57.044Z,99749.37
2018-04-30T16:32:22.775Z,99755.80
2018-04-30T16:34:48.504Z,99755.07
2018-04-30T16:37:14.229Z,99751.73
2018-04-30T16:39:39.962Z,99750.67
2018-04-30T16:42:05.693Z,99753.67
2018-04-30T16:44:31.424Z,99748.19
2018-04-30T16:46:57.216Z,99756.22
2018-04-30T16:49:22.868Z,99751.00
2018-04-30T16:51:48.594Z,99761.38
2018-04-30T16:54:14.324Z,99762.63
2018-04-30T16:56:40.048Z,99762.59
2018-04-30T16:59:05.780Z,99768.02
2018-04-30T17:01:31.488Z,99750.37
2018-04-30T17:03:57.219Z,99759.67
2018-04-30T17:06:22.934Z,99763.28
2018-04-30T17:08:48.680Z,99753.66
2018-04-30T17:11:14.400Z,99755.11
2018-04-30T17:13:40.157Z,99753.42
2018-04-30T17:16:05.906Z,99759.78
2018-04-30T17:18:31.650Z,99765.66
2018-04-30T17:20:57.377Z,99773.09
2018-04-30T17:23:23.114Z,99765.17
2018-04-30T17:25:48.860Z,99762.27
2018-04-30T17:28:14.590Z,99769.83
2018-04-30T17:30:40.337Z,99760.86
2018-04-30T17:33:06.065Z,99769.46
2018-04-30T17:35:31.798Z,99772.36
2018-04-30T17:37:57.530Z,99785.58
2018-04-30T17:40:23.260Z,99780.39
2018-04-30T17:42:48.977Z,99783.47
2018-04-30T17:45:14.697Z,99782.05
2018-04-30T17:47:40.407Z,99790.24
2018-04-30T17:50:06.156Z,99791.33
2018-04-30T17:52:31.897Z,99790.55
2018-04-30T17:54:57.626Z,99795.23
2018-04-30T17:57:25.084Z,99793.72
2018-04-30T17:59:50.919Z,99790.20
2018-04-30T18:02:16.648Z,99801.32
2018-04-30T18:04:42.384Z,99798.88
2018-04-30T18:07:08.395Z,99797.86
2018-04-30T18:09:34.562Z,99805.55
2018-04-30T18:12:00.324Z,99803.89
2018-04-30T18:14:26.063Z,99802.20
2018-04-30T18:16:51.793Z,99808.13
2018-04-30T18:19:17.523Z,99811.16
2018-04-30T18:21:43.255Z,99819.38
2018-04-30T18:24:08.986Z,99817.77
2018-04-30T18:26:34.806Z,99822.11
2018-04-30T18:29:00.446Z,99828.59
2018-04-30T18:31:26.176Z,99832.14
2018-04-30T18:33:51.902Z,99834.91
2018-04-30T18:36:17.653Z,99838.70
2018-04-30T18:38:43.450Z,99844.14
2018-04-30T18:41:09.132Z,99865.50
2018-04-30T18:43:34.844Z,99854.81
2018-04-30T18:46:00.589Z,99847.35
2018-04-30T18:48:26.301Z,99843.88
2018-04-30T18:50:52.031Z,99843.36
2018-04-30T18:53:17.757Z,99848.09
2018-04-30T18:55:43.492Z,99859.46
2018-04-30T18:58:09.216Z,99857.53
2018-04-30T19:00:34.945Z,99863.73
2018-04-30T19:03:00.665Z,99867.56
2018-04-30T19:05:26.391Z,99867.81
2018-04-30T19:07:52.117Z,99877.81
2018-04-30T19:10:17.852Z,99879.09
2018-04-30T19:12:43.564Z,99877.95
2018-04-30T19:15:09.289Z,99879.22
2018-04-30T19:17:35.014Z,99874.62
2018-04-30T19:20:00.745Z,99872.78
2018-04-30T19:22:26.756Z,99872.61
2018-04-30T19:24:52.479Z,99878.07
2018-04-30T19:27:18.197Z,99881.75
2018-04-30T19:29:43.929Z,99879.77
2018-04-30T19:32:09.661Z,99878.73
2018-04-30T19:34:35.375Z,99883.27
2018-04-30T19:37:01.108Z,99886.61
2018-04-30T19:39:26.825Z,99884.36
2018-04-30T19:41:52.552Z,99881.41
2018-04-30T19:44:18.279Z,99879.54
2018-04-30T19:46:44.073Z,99882.98
2018-04-30T19:49:09.736Z,99887.75
2018-04-30T19:51:35.456Z,99887.22
2018-04-30T19:54:01.167Z,99892.25
2018-04-30T19:56:26.901Z,99895.37
2018-04-30T19:58:52.620Z,99896.56
2018-04-30T20:01:18.355Z,99897.59
2018-04-30T20:03:44.069Z,99891.00
2018-04-30T20:06:09.788Z,99902.06
2018-04-30T20:08:35.512Z,99902.52
2018-04-30T20:11:01.247Z,99907.88
2018-04-30T20:13:26.986Z,99908.64
2018-04-30T20:15:52.713Z,99910.80
2018-04-30T20:18:18.413Z,99902.87
2018-04-30T20:20:44.140Z,99902.79
2018-04-30T20:23:09.863Z,99897.88
2018-04-30T20:25:35.592Z,99900.79
2018-04-30T20:28:01.309Z,99901.22
2018-04-30T20:30:27.048Z,99902.86
2018-04-30T20:32:52.768Z,99900.22
2018-04-30T20:35:18.500Z,99901.45
2018-04-30T20:37:44.233Z,99898.08
2018-04-30T20:40:09.949Z,99894.33
2018-04-30T20:42:35.676Z,99894.79
2018-04-30T20:45:01.389Z,99893.64
2018-04-30T20:47:27.113Z,99892.53
2018-04-30T20:49:52.834Z,99887.97
2018-04-30T20:52:18.560Z,99884.50
2018-04-30T20:54:44.281Z,99884.27
2018-04-30T20:57:10.004Z,99886.80
2018-04-30T20:59:35.717Z,99889.11
2018-04-30T21:02:01.444Z,99887.34
2018-04-30T21:04:27.212Z,99882.56
2018-04-30T21:06:52.936Z,99881.84
2018-04-30T21:09:18.647Z,99883.58
2018-04-30T21:11:44.380Z,99872.86
2018-04-30T21:14:10.083Z,99883.09
2018-04-30T21:16:35.823Z,99881.66
2018-04-30T21:19:01.531Z,99890.41
2018-04-30T21:21:27.261Z,99881.63
2018-04-30T21:23:52.984Z,99886.18
2018-04-30T21:26:18.715Z,99883.97
2018-04-30T21:28:44.435Z,99887.63
2018-04-30T21:31:10.154Z,99876.50
2018-04-30T21:33:35.879Z,99873.73
2018-04-30T21:36:01.600Z,99871.48
2018-04-30T21:38:27.323Z,99871.65
2018-04-30T21:40:53.044Z,99867.38
2018-04-30T21:43:18.764Z,99870.94
2018-04-30T21:45:44.480Z,99870.31
2018-04-30T21:48:10.212Z,99863.20
2018-04-30T21:50:35.921Z,99864.05
2018-04-30T21:53:01.640Z,99864.16
2018-04-30T21:55:27.360Z,99858.48
2018-04-30T21:57:53.098Z,99857.56
2018-04-30T22:00:18.855Z,99856.54
2018-04-30T22:02:44.596Z,99852.33
2018-04-30T22:05:10.316Z,99855.80
2018-04-30T22:07:36.048Z,99865.86
2018-04-30T22:10:01.774Z,99869.22
2018-04-30T22:12:27.504Z,99867.80
2018-04-30T22:14:53.228Z,99869.20
2018-04-30T22:17:18.957Z,99864.47
2018-04-30T22:19:44.673Z,99848.05
2018-04-30T22:22:10.436Z,99845.59
2018-04-30T22:24:36.139Z,99848.05
2018-04-30T22:27:01.881Z,99851.98
2018-04-30T22:29:27.603Z,99848.91
2018-04-30T22:31:53.328Z,99844.89
2018-04-30T22:34:19.053Z,99848.42
2018-04-30T22:36:44.804Z,99849.25
2018-04-30T22:39:10.519Z,99846.09
2018-04-30T22:41:36.241Z,99843.70
2018-04-30T22:44:02.000Z,99841.63
2018-04-30T22:46:27.704Z,99835.22
2018-04-30T22:48:53.444Z,99847.36
2018-04-30T22:51:19.164Z,99848.23
2018-04-30T22:53:44.908Z,99850.38
2018-04-30T22:56:10.633Z,99853.15
2018-04-30T22:58:36.375Z,99855.60
2018-04-30T23:01:02.097Z,99855.27
2018-04-30T23:03:27.832Z,99855.84
2018-04-30T23:05:53.568Z,99858.88
2018-04-30T23:08:19.291Z,99860.44
2018-04-30T23:10:45.005Z,99854.55
2018-04-30T23:13:10.736Z,99844.73
2018-04-30T23:15:36.453Z,99844.86
2018-04-30T23:18:02.175Z,99841.14
2018-04-30T23:20:27.889Z,99838.66
2018-04-30T23:22:53.657Z,99842.10
2018-04-30T23:25:20.351Z,99836.76
2018-04-30T23:27:46.084Z,99838.27
2018-04-30T23:30:11.788Z,99836.36
2018-04-30T23:32:37.508Z,99839.13
2018-04-30T23:35:03.224Z,99824.30
2018-04-30T23:37:28.949Z,99822.44
2018-04-30T23:39:54.665Z,99824.03
2018-04-30T23:42:20.708Z,99813.00
2018-04-30T23:44:46.436Z,99806.66
2018-04-30T23:47:12.163Z,99803.13
2018-04-30T23:49:37.896Z,99802.33
2018-04-30T23:52:03.619Z,99790.02
2018-04-30T23:54:29.331Z,99793.05
2018-04-30T23:56:55.069Z,99776.87
2018-04-30T23:59:21.490Z,99780.52
